sensor_id;sensor_type;location;lat;lon;timestamp;temperature;humidity
32348;DHT22;18821;44.800;10.326;2023-04-20T00:00:29;13.60;1.00
32348;DHT22;18821;44.800;10.326;2023-04-20T00:02:55;13.60;1.00
32348;DHT22;18821;44.800;10.326;2023-04-20T00:05:21;13.60;1.00
32348;DHT22;18821;44.800;10.326;2023-04-20T00:07:48;13.60;1.00
32348;DHT22;18821;44.800;10.326;2023-04-20T00:10:14;13.60;1.00
32348;DHT22;18821;44.800;10.326;2023-04-20T00:12:41;13.60;1.00
32348;DHT22;18821;44.800;10.326;2023-04-20T00:15:07;13.60;1.00
32348;DHT22;18821;44.800;10.326;2023-04-20T00:17:33;13.60;1.00
32348;DHT22;18821;44.800;10.326;2023-04-20T00:19:59;13.60;1.00
32348;DHT22;18821;44.800;10.326;2023-04-20T00:22:25;13.50;1.00
32348;DHT22;18821;44.800;10.326;2023-04-20T00:24:52;13.40;1.00
32348;DHT22;18821;44.800;10.326;2023-04-20T00:27:18;13.50;1.00
32348;DHT22;18821;44.800;10.326;2023-04-20T00:29:45;13.50;1.00
32348;DHT22;18821;44.800;10.326;2023-04-20T00:32:11;13.50;1.00
32348;DHT22;18821;44.800;10.326;2023-04-20T00:34:39;13.50;1.00
32348;DHT22;18821;44.800;10.326;2023-04-20T00:37:05;13.50;1.00
32348;DHT22;18821;44.800;10.326;2023-04-20T00:39:31;13.40;1.00
32348;DHT22;18821;44.800;10.326;2023-04-20T00:42:07;13.40;1.00
32348;DHT22;18821;44.800;10.326;2023-04-20T00:44:34;13.40;1.00
32348;DHT22;18821;44.800;10.326;2023-04-20T00:47:00;13.40;1.00
32348;DHT22;18821;44.800;10.326;2023-04-20T00:49:27;13.40;1.00
32348;DHT22;18821;44.800;10.326;2023-04-20T00:51:58;13.40;1.00
32348;DHT22;18821;44.800;10.326;2023-04-20T00:54:25;13.50;1.00
32348;DHT22;18821;44.800;10.326;2023-04-20T00:56:53;13.50;1.00
32348;DHT22;18821;44.800;10.326;2023-04-20T00:59:20;13.40;1.00
32348;DHT22;18821;44.800;10.326;2023-04-20T01:01:46;13.40;1.00
32348;DHT22;18821;44.800;10.326;2023-04-20T01:04:14;13.40;1.00
32348;DHT22;18821;44.800;10.326;2023-04-20T01:06:40;13.30;1.00
32348;DHT22;18821;44.800;10.326;2023-04-20T01:09:06;13.30;1.00
32348;DHT22;18821;44.800;10.326;2023-04-20T01:11:32;13.30;1.00
32348;DHT22;18821;44.800;10.326;2023-04-20T01:13:58;13.20;1.00
32348;DHT22;18821;44.800;10.326;2023-04-20T01:16:24;13.20;1.00
32348;DHT22;18821;44.800;10.326;2023-04-20T01:18:50;13.20;1.00
32348;DHT22;18821;44.800;10.326;2023-04-20T01:21:18;13.20;1.00
32348;DHT22;18821;44.800;10.326;2023-04-20T01:23:44;13.20;1.00
32348;DHT22;18821;44.800;10.326;2023-04-20T01:26:14;13.20;1.00
32348;DHT22;18821;44.800;10.326;2023-04-20T01:28:41;13.20;1.00
32348;DHT22;18821;44.800;10.326;2023-04-20T01:31:08;13.10;1.00
32348;DHT22;18821;44.800;10.326;2023-04-20T01:33:34;13.10;1.00
32348;DHT22;18821;44.800;10.326;2023-04-20T01:36:02;13.00;1.00
32348;DHT22;18821;44.800;10.326;2023-04-20T01:38:28;13.00;1.00
32348;DHT22;18821;44.800;10.326;2023-04-20T01:41:00;13.00;1.00
32348;DHT22;18821;44.800;10.326;2023-04-20T01:43:27;13.00;1.00
32348;DHT22;18821;44.800;10.326;2023-04-20T01:45:53;12.80;1.00
32348;DHT22;18821;44.800;10.326;2023-04-20T01:48:18;12.70;1.00
32348;DHT22;18821;44.800;10.326;2023-04-20T01:50:44;12.70;1.00
32348;DHT22;18821;44.800;10.326;2023-04-20T01:53:10;12.50;1.00
32348;DHT22;18821;44.800;10.326;2023-04-20T01:55:38;12.40;1.00
32348;DHT22;18821;44.800;10.326;2023-04-20T01:58:04;12.40;1.00
32348;DHT22;18821;44.800;10.326;2023-04-20T02:00:30;12.40;1.00
32348;DHT22;18821;44.800;10.326;2023-04-20T02:02:58;12.30;1.00
32348;DHT22;18821;44.800;10.326;2023-04-20T02:05:24;12.30;1.00
32348;DHT22;18821;44.800;10.326;2023-04-20T02:07:50;12.30;1.00
32348;DHT22;18821;44.800;10.326;2023-04-20T02:10:16;12.30;1.00
32348;DHT22;18821;44.800;10.326;2023-04-20T02:12:44;12.20;1.00
32348;DHT22;18821;44.800;10.326;2023-04-20T02:15:10;12.10;1.00
32348;DHT22;18821;44.800;10.326;2023-04-20T02:17:36;12.10;1.00
32348;DHT22;18821;44.800;10.326;2023-04-20T02:20:05;12.00;1.00
32348;DHT22;18821;44.800;10.326;2023-04-20T02:22:32;12.00;1.00
32348;DHT22;18821;44.800;10.326;2023-04-20T02:25:00;12.10;1.00
32348;DHT22;18821;44.800;10.326;2023-04-20T02:27:27;12.10;1.00
32348;DHT22;18821;44.800;10.326;2023-04-20T02:29:52;12.10;1.00
32348;DHT22;18821;44.800;10.326;2023-04-20T02:32:18;12.10;1.00
32348;DHT22;18821;44.800;10.326;2023-04-20T02:34:44;12.00;1.00
32348;DHT22;18821;44.800;10.326;2023-04-20T02:37:10;12.00;1.00
32348;DHT22;18821;44.800;10.326;2023-04-20T02:39:36;12.00;1.00
32348;DHT22;18821;44.800;10.326;2023-04-20T02:42:02;12.00;1.00
32348;DHT22;18821;44.800;10.326;2023-04-20T02:44:28;12.00;1.00
32348;DHT22;18821;44.800;10.326;2023-04-20T02:46:54;12.00;1.00
32348;DHT22;18821;44.800;10.326;2023-04-20T02:49:22;12.10;1.00
32348;DHT22;18821;44.800;10.326;2023-04-20T02:51:48;12.10;1.00
32348;DHT22;18821;44.800;10.326;2023-04-20T02:54:14;12.10;1.00
32348;DHT22;18821;44.800;10.326;2023-04-20T02:56:41;12.10;1.00
32348;DHT22;18821;44.800;10.326;2023-04-20T02:59:09;12.10;3.90
32348;DHT22;18821;44.800;10.326;2023-04-20T03:01:57;12.10;6.10
32348;DHT22;18821;44.800;10.326;2023-04-20T03:04:24;12.10;10.40
32348;DHT22;18821;44.800;10.326;2023-04-20T03:07:02;12.00;17.90
32348;DHT22;18821;44.800;10.326;2023-04-20T03:09:32;11.90;25.70
32348;DHT22;18821;44.800;10.326;2023-04-20T03:12:04;11.80;28.20
32348;DHT22;18821;44.800;10.326;2023-04-20T03:14:53;11.80;32.10
32348;DHT22;18821;44.800;10.326;2023-04-20T03:17:24;11.80;36.10
32348;DHT22;18821;44.800;10.326;2023-04-20T03:19:51;11.80;37.70
32348;DHT22;18821;44.800;10.326;2023-04-20T03:22:17;11.70;41.00
32348;DHT22;18821;44.800;10.326;2023-04-20T03:24:48;11.70;44.10
32348;DHT22;18821;44.800;10.326;2023-04-20T03:27:27;11.70;46.30
32348;DHT22;18821;44.800;10.326;2023-04-20T03:30:04;11.70;48.70
32348;DHT22;18821;44.800;10.326;2023-04-20T03:32:31;11.70;49.60
32348;DHT22;18821;44.800;10.326;2023-04-20T03:34:57;11.70;53.10
32348;DHT22;18821;44.800;10.326;2023-04-20T03:37:23;11.60;55.90
32348;DHT22;18821;44.800;10.326;2023-04-20T03:39:50;11.60;57.50
32348;DHT22;18821;44.800;10.326;2023-04-20T03:42:16;11.60;58.80
32348;DHT22;18821;44.800;10.326;2023-04-20T03:44:42;11.50;60.90
32348;DHT22;18821;44.800;10.326;2023-04-20T03:47:09;11.50;63.90
32348;DHT22;18821;44.800;10.326;2023-04-20T03:49:35;11.50;66.90
32348;DHT22;18821;44.800;10.326;2023-04-20T03:52:01;11.60;67.60
32348;DHT22;18821;44.800;10.326;2023-04-20T03:54:27;11.50;67.30
32348;DHT22;18821;44.800;10.326;2023-04-20T03:56:53;11.60;69.70
32348;DHT22;18821;44.800;10.326;2023-04-20T03:59:20;11.60;69.60
32348;DHT22;18821;44.800;10.326;2023-04-20T04:01:48;11.60;69.60
32348;DHT22;18821;44.800;10.326;2023-04-20T04:04:15;11.60;69.60
32348;DHT22;18821;44.800;10.326;2023-04-20T04:06:41;11.60;69.00
32348;DHT22;18821;44.800;10.326;2023-04-20T04:09:07;11.60;70.10
32348;DHT22;18821;44.800;10.326;2023-04-20T04:11:33;11.60;71.60
32348;DHT22;18821;44.800;10.326;2023-04-20T04:14:00;11.50;73.70
32348;DHT22;18821;44.800;10.326;2023-04-20T04:16:27;11.50;75.20
32348;DHT22;18821;44.800;10.326;2023-04-20T04:18:54;11.40;76.80
32348;DHT22;18821;44.800;10.326;2023-04-20T04:21:20;11.40;78.50
32348;DHT22;18821;44.800;10.326;2023-04-20T04:23:53;11.40;78.90
32348;DHT22;18821;44.800;10.326;2023-04-20T04:26:34;11.40;80.10
32348;DHT22;18821;44.800;10.326;2023-04-20T04:29:02;11.40;82.40
32348;DHT22;18821;44.800;10.326;2023-04-20T04:31:29;11.40;83.10
32348;DHT22;18821;44.800;10.326;2023-04-20T04:34:03;11.40;83.40
32348;DHT22;18821;44.800;10.326;2023-04-20T04:36:36;11.50;83.20
32348;DHT22;18821;44.800;10.326;2023-04-20T04:39:02;11.50;82.70
32348;DHT22;18821;44.800;10.326;2023-04-20T04:41:28;11.60;76.60
32348;DHT22;18821;44.800;10.326;2023-04-20T04:44:05;11.60;75.00
32348;DHT22;18821;44.800;10.326;2023-04-20T04:46:31;11.70;71.60
32348;DHT22;18821;44.800;10.326;2023-04-20T04:48:58;11.80;67.00
32348;DHT22;18821;44.800;10.326;2023-04-20T04:51:27;11.90;61.00
32348;DHT22;18821;44.800;10.326;2023-04-20T04:53:53;11.80;57.30
32348;DHT22;18821;44.800;10.326;2023-04-20T04:56:20;11.80;55.60
32348;DHT22;18821;44.800;10.326;2023-04-20T04:58:46;11.90;56.20
32348;DHT22;18821;44.800;10.326;2023-04-20T05:01:12;12.00;53.50
32348;DHT22;18821;44.800;10.326;2023-04-20T05:03:38;12.00;49.90
32348;DHT22;18821;44.800;10.326;2023-04-20T05:06:04;12.00;51.30
32348;DHT22;18821;44.800;10.326;2023-04-20T05:08:30;11.90;49.00
32348;DHT22;18821;44.800;10.326;2023-04-20T05:10:56;12.00;48.20
32348;DHT22;18821;44.800;10.326;2023-04-20T05:13:22;12.00;49.30
32348;DHT22;18821;44.800;10.326;2023-04-20T05:15:48;12.10;51.90
32348;DHT22;18821;44.800;10.326;2023-04-20T05:18:14;12.10;51.00
32348;DHT22;18821;44.800;10.326;2023-04-20T05:20:40;12.20;48.20
32348;DHT22;18821;44.800;10.326;2023-04-20T05:23:06;12.20;50.30
32348;DHT22;18821;44.800;10.326;2023-04-20T05:25:32;12.10;50.70
32348;DHT22;18821;44.800;10.326;2023-04-20T05:27:58;12.10;56.00
32348;DHT22;18821;44.800;10.326;2023-04-20T05:30:24;12.00;57.80
32348;DHT22;18821;44.800;10.326;2023-04-20T05:32:50;11.90;64.20
32348;DHT22;18821;44.800;10.326;2023-04-20T05:35:16;11.70;72.50
32348;DHT22;18821;44.800;10.326;2023-04-20T05:37:42;11.60;79.00
32348;DHT22;18821;44.800;10.326;2023-04-20T05:40:08;11.50;84.50
32348;DHT22;18821;44.800;10.326;2023-04-20T05:42:34;11.50;87.70
32348;DHT22;18821;44.800;10.326;2023-04-20T05:45:00;11.40;89.30
32348;DHT22;18821;44.800;10.326;2023-04-20T05:47:26;11.40;90.80
32348;DHT22;18821;44.800;10.326;2023-04-20T05:49:52;11.40;91.80
32348;DHT22;18821;44.800;10.326;2023-04-20T05:52:19;11.50;92.30
32348;DHT22;18821;44.800;10.326;2023-04-20T05:54:45;11.50;93.10
32348;DHT22;18821;44.800;10.326;2023-04-20T05:57:10;11.60;93.10
32348;DHT22;18821;44.800;10.326;2023-04-20T05:59:36;11.60;91.60
32348;DHT22;18821;44.800;10.326;2023-04-20T06:02:02;11.50;91.40
32348;DHT22;18821;44.800;10.326;2023-04-20T06:04:29;11.60;92.50
32348;DHT22;18821;44.800;10.326;2023-04-20T06:06:55;11.80;93.20
32348;DHT22;18821;44.800;10.326;2023-04-20T06:09:21;11.80;93.20
32348;DHT22;18821;44.800;10.326;2023-04-20T06:11:47;11.90;91.80
32348;DHT22;18821;44.800;10.326;2023-04-20T06:14:13;11.90;91.00
32348;DHT22;18821;44.800;10.326;2023-04-20T06:16:39;12.00;90.20
32348;DHT22;18821;44.800;10.326;2023-04-20T06:19:05;12.00;85.90
32348;DHT22;18821;44.800;10.326;2023-04-20T06:21:34;12.00;83.20
32348;DHT22;18821;44.800;10.326;2023-04-20T06:24:01;12.00;82.80
32348;DHT22;18821;44.800;10.326;2023-04-20T06:26:27;12.00;82.30
32348;DHT22;18821;44.800;10.326;2023-04-20T06:28:53;12.00;80.10
32348;DHT22;18821;44.800;10.326;2023-04-20T06:31:19;12.10;82.20
32348;DHT22;18821;44.800;10.326;2023-04-20T06:33:45;12.20;82.70
32348;DHT22;18821;44.800;10.326;2023-04-20T06:36:11;12.20;80.10
32348;DHT22;18821;44.800;10.326;2023-04-20T06:38:37;12.30;77.60
32348;DHT22;18821;44.800;10.326;2023-04-20T06:41:03;12.40;71.80
32348;DHT22;18821;44.800;10.326;2023-04-20T06:43:29;12.30;66.80
32348;DHT22;18821;44.800;10.326;2023-04-20T06:45:55;12.40;64.40
32348;DHT22;18821;44.800;10.326;2023-04-20T06:48:21;12.30;62.20
32348;DHT22;18821;44.800;10.326;2023-04-20T06:50:50;12.30;61.40
32348;DHT22;18821;44.800;10.326;2023-04-20T06:53:16;12.30;59.50
32348;DHT22;18821;44.800;10.326;2023-04-20T06:55:42;12.20;59.60
32348;DHT22;18821;44.800;10.326;2023-04-20T06:58:08;12.20;58.00
32348;DHT22;18821;44.800;10.326;2023-04-20T07:00:34;12.10;58.20
32348;DHT22;18821;44.800;10.326;2023-04-20T07:03:00;12.00;57.60
32348;DHT22;18821;44.800;10.326;2023-04-20T07:05:27;11.90;61.50
32348;DHT22;18821;44.800;10.326;2023-04-20T07:07:54;11.90;71.00
32348;DHT22;18821;44.800;10.326;2023-04-20T07:10:20;11.90;73.00
32348;DHT22;18821;44.800;10.326;2023-04-20T07:12:46;12.00;77.70
32348;DHT22;18821;44.800;10.326;2023-04-20T07:15:13;12.00;80.70
32348;DHT22;18821;44.800;10.326;2023-04-20T07:17:40;12.00;80.10
32348;DHT22;18821;44.800;10.326;2023-04-20T07:20:06;12.10;84.20
32348;DHT22;18821;44.800;10.326;2023-04-20T07:22:34;12.10;82.60
32348;DHT22;18821;44.800;10.326;2023-04-20T07:25:01;12.20;80.10
32348;DHT22;18821;44.800;10.326;2023-04-20T07:27:28;12.30;79.10
32348;DHT22;18821;44.800;10.326;2023-04-20T07:29:55;12.40;77.10
32348;DHT22;18821;44.800;10.326;2023-04-20T07:32:22;12.60;75.30
32348;DHT22;18821;44.800;10.326;2023-04-20T07:34:48;12.80;70.50
32348;DHT22;18821;44.800;10.326;2023-04-20T07:37:14;12.90;61.40
32348;DHT22;18821;44.800;10.326;2023-04-20T07:39:40;13.00;55.20
32348;DHT22;18821;44.800;10.326;2023-04-20T07:42:06;13.10;49.90
32348;DHT22;18821;44.800;10.326;2023-04-20T07:44:32;13.30;49.20
32348;DHT22;18821;44.800;10.326;2023-04-20T07:47:01;13.30;45.20
32348;DHT22;18821;44.800;10.326;2023-04-20T07:49:27;13.40;39.60
32348;DHT22;18821;44.800;10.326;2023-04-20T07:51:53;13.40;39.70
32348;DHT22;18821;44.800;10.326;2023-04-20T07:54:18;13.40;42.00
32348;DHT22;18821;44.800;10.326;2023-04-20T07:56:45;13.50;45.10
32348;DHT22;18821;44.800;10.326;2023-04-20T07:59:11;13.50;41.80
32348;DHT22;18821;44.800;10.326;2023-04-20T08:01:36;13.70;43.50
32348;DHT22;18821;44.800;10.326;2023-04-20T08:04:02;13.70;37.50
32348;DHT22;18821;44.800;10.326;2023-04-20T08:06:28;13.80;36.00
32348;DHT22;18821;44.800;10.326;2023-04-20T08:08:54;14.00;34.70
32348;DHT22;18821;44.800;10.326;2023-04-20T08:11:20;14.10;32.00
32348;DHT22;18821;44.800;10.326;2023-04-20T08:13:46;14.10;27.00
32348;DHT22;18821;44.800;10.326;2023-04-20T08:16:12;13.90;25.80
32348;DHT22;18821;44.800;10.326;2023-04-20T08:18:38;13.90;33.10
32348;DHT22;18821;44.800;10.326;2023-04-20T08:21:04;13.70;33.40
32348;DHT22;18821;44.800;10.326;2023-04-20T08:23:30;13.60;35.70
32348;DHT22;18821;44.800;10.326;2023-04-20T08:25:56;13.40;42.90
32348;DHT22;18821;44.800;10.326;2023-04-20T08:28:22;13.30;46.90
32348;DHT22;18821;44.800;10.326;2023-04-20T08:30:48;13.20;52.80
32348;DHT22;18821;44.800;10.326;2023-04-20T08:33:15;13.20;57.40
32348;DHT22;18821;44.800;10.326;2023-04-20T08:35:40;13.30;56.30
32348;DHT22;18821;44.800;10.326;2023-04-20T08:38:06;13.30;51.20
32348;DHT22;18821;44.800;10.326;2023-04-20T08:40:35;13.20;50.00
32348;DHT22;18821;44.800;10.326;2023-04-20T08:43:01;13.30;54.00
32348;DHT22;18821;44.800;10.326;2023-04-20T08:45:28;13.30;51.90
32348;DHT22;18821;44.800;10.326;2023-04-20T08:47:57;13.50;55.50
32348;DHT22;18821;44.800;10.326;2023-04-20T08:50:23;13.70;50.70
32348;DHT22;18821;44.800;10.326;2023-04-20T08:52:49;13.90;45.90
32348;DHT22;18821;44.800;10.326;2023-04-20T08:55:16;14.00;39.10
32348;DHT22;18821;44.800;10.326;2023-04-20T08:57:42;14.10;35.20
32348;DHT22;18821;44.800;10.326;2023-04-20T09:00:09;14.30;37.50
32348;DHT22;18821;44.800;10.326;2023-04-20T09:02:46;14.50;29.10
32348;DHT22;18821;44.800;10.326;2023-04-20T09:05:12;14.80;24.90
32348;DHT22;18821;44.800;10.326;2023-04-20T09:07:38;14.80;9.00
32348;DHT22;18821;44.800;10.326;2023-04-20T09:10:05;14.70;10.30
32348;DHT22;18821;44.800;10.326;2023-04-20T09:12:41;14.70;10.70
32348;DHT22;18821;44.800;10.326;2023-04-20T09:15:08;14.70;10.20
32348;DHT22;18821;44.800;10.326;2023-04-20T09:17:36;14.70;6.50
32348;DHT22;18821;44.800;10.326;2023-04-20T09:20:04;14.80;8.40
32348;DHT22;18821;44.800;10.326;2023-04-20T09:22:32;14.90;4.50
32348;DHT22;18821;44.800;10.326;2023-04-20T09:24:59;15.00;3.00
32348;DHT22;18821;44.800;10.326;2023-04-20T09:27:26;15.00;1.00
32348;DHT22;18821;44.800;10.326;2023-04-20T09:29:57;15.10;1.00
32348;DHT22;18821;44.800;10.326;2023-04-20T09:32:24;15.00;1.00
32348;DHT22;18821;44.800;10.326;2023-04-20T09:34:50;15.00;1.00
32348;DHT22;18821;44.800;10.326;2023-04-20T09:37:16;15.10;1.00
32348;DHT22;18821;44.800;10.326;2023-04-20T09:39:44;15.20;1.00
32348;DHT22;18821;44.800;10.326;2023-04-20T09:42:14;15.30;1.00
32348;DHT22;18821;44.800;10.326;2023-04-20T09:44:41;15.30;1.00
32348;DHT22;18821;44.800;10.326;2023-04-20T09:47:08;15.40;1.00
32348;DHT22;18821;44.800;10.326;2023-04-20T09:49:45;15.40;1.00
32348;DHT22;18821;44.800;10.326;2023-04-20T09:52:15;15.40;1.00
32348;DHT22;18821;44.800;10.326;2023-04-20T09:54:43;15.40;1.00
32348;DHT22;18821;44.800;10.326;2023-04-20T09:57:11;15.30;1.00
32348;DHT22;18821;44.800;10.326;2023-04-20T09:59:40;15.20;1.00
32348;DHT22;18821;44.800;10.326;2023-04-20T10:02:09;15.40;1.00
32348;DHT22;18821;44.800;10.326;2023-04-20T10:04:36;15.50;1.00
32348;DHT22;18821;44.800;10.326;2023-04-20T10:07:02;15.50;1.00
32348;DHT22;18821;44.800;10.326;2023-04-20T10:09:31;15.70;1.00
32348;DHT22;18821;44.800;10.326;2023-04-20T10:12:08;15.80;1.00
32348;DHT22;18821;44.800;10.326;2023-04-20T10:14:34;16.00;1.00
32348;DHT22;18821;44.800;10.326;2023-04-20T10:17:03;16.20;1.00
32348;DHT22;18821;44.800;10.326;2023-04-20T10:19:40;16.20;1.00
32348;DHT22;18821;44.800;10.326;2023-04-20T10:22:07;16.30;1.00
32348;DHT22;18821;44.800;10.326;2023-04-20T10:24:34;16.30;1.00
32348;DHT22;18821;44.800;10.326;2023-04-20T10:27:03;16.10;1.00
32348;DHT22;18821;44.800;10.326;2023-04-20T10:29:29;16.20;1.00
32348;DHT22;18821;44.800;10.326;2023-04-20T10:31:56;16.20;1.00
32348;DHT22;18821;44.800;10.326;2023-04-20T10:34:35;16.60;1.00
32348;DHT22;18821;44.800;10.326;2023-04-20T10:37:09;16.70;1.00
32348;DHT22;18821;44.800;10.326;2023-04-20T10:39:42;16.90;1.00
32348;DHT22;18821;44.800;10.326;2023-04-20T10:42:08;16.80;1.00
32348;DHT22;18821;44.800;10.326;2023-04-20T10:44:34;16.70;1.00
32348;DHT22;18821;44.800;10.326;2023-04-20T10:47:00;16.90;1.00
32348;DHT22;18821;44.800;10.326;2023-04-20T10:49:27;17.30;1.00
32348;DHT22;18821;44.800;10.326;2023-04-20T10:51:54;17.40;1.00
32348;DHT22;18821;44.800;10.326;2023-04-20T10:54:20;17.70;1.00
32348;DHT22;18821;44.800;10.326;2023-04-20T10:56:50;17.90;1.00
32348;DHT22;18821;44.800;10.326;2023-04-20T10:59:18;17.60;1.00
32348;DHT22;18821;44.800;10.326;2023-04-20T11:01:45;17.40;1.00
32348;DHT22;18821;44.800;10.326;2023-04-20T11:04:11;17.50;1.00
32348;DHT22;18821;44.800;10.326;2023-04-20T11:06:39;17.50;1.00
32348;DHT22;18821;44.800;10.326;2023-04-20T11:09:22;17.60;1.00
32348;DHT22;18821;44.800;10.326;2023-04-20T11:12:01;17.40;1.00
32348;DHT22;18821;44.800;10.326;2023-04-20T11:14:29;17.50;1.00
32348;DHT22;18821;44.800;10.326;2023-04-20T11:16:56;17.60;1.00
32348;DHT22;18821;44.800;10.326;2023-04-20T11:19:23;18.00;1.00
32348;DHT22;18821;44.800;10.326;2023-04-20T11:21:49;18.20;1.00
32348;DHT22;18821;44.800;10.326;2023-04-20T11:24:25;18.30;1.00
32348;DHT22;18821;44.800;10.326;2023-04-20T11:26:52;18.10;1.00
32348;DHT22;18821;44.800;10.326;2023-04-20T11:29:38;18.20;1.00
32348;DHT22;18821;44.800;10.326;2023-04-20T11:32:06;17.90;1.00
32348;DHT22;18821;44.800;10.326;2023-04-20T11:34:33;17.70;1.00
32348;DHT22;18821;44.800;10.326;2023-04-20T11:37:07;17.60;1.00
32348;DHT22;18821;44.800;10.326;2023-04-20T11:39:34;17.90;1.00
32348;DHT22;18821;44.800;10.326;2023-04-20T11:42:00;18.10;1.00
32348;DHT22;18821;44.800;10.326;2023-04-20T11:44:26;18.10;1.00
32348;DHT22;18821;44.800;10.326;2023-04-20T11:46:53;17.90;1.00
32348;DHT22;18821;44.800;10.326;2023-04-20T11:49:25;17.70;1.00
32348;DHT22;18821;44.800;10.326;2023-04-20T11:51:52;17.50;1.00
32348;DHT22;18821;44.800;10.326;2023-04-20T11:54:18;17.40;1.00
32348;DHT22;18821;44.800;10.326;2023-04-20T11:56:44;17.60;1.00
32348;DHT22;18821;44.800;10.326;2023-04-20T11:59:11;17.50;1.00
32348;DHT22;18821;44.800;10.326;2023-04-20T12:01:39;17.70;1.00
32348;DHT22;18821;44.800;10.326;2023-04-20T12:04:05;17.80;1.00
32348;DHT22;18821;44.800;10.326;2023-04-20T12:06:32;18.20;1.00
32348;DHT22;18821;44.800;10.326;2023-04-20T12:08:59;18.40;1.00
32348;DHT22;18821;44.800;10.326;2023-04-20T12:11:26;18.40;99.90
32348;DHT22;18821;44.800;10.326;2023-04-20T12:13:52;18.30;1.00
32348;DHT22;18821;44.800;10.326;2023-04-20T12:16:21;18.10;1.00
32348;DHT22;18821;44.800;10.326;2023-04-20T12:18:46;18.00;1.00
32348;DHT22;18821;44.800;10.326;2023-04-20T12:21:13;18.30;1.00
32348;DHT22;18821;44.800;10.326;2023-04-20T12:23:39;18.70;1.00
32348;DHT22;18821;44.800;10.326;2023-04-20T12:26:05;18.70;1.00
32348;DHT22;18821;44.800;10.326;2023-04-20T12:28:32;18.70;99.90
32348;DHT22;18821;44.800;10.326;2023-04-20T12:30:58;18.70;99.90
32348;DHT22;18821;44.800;10.326;2023-04-20T12:33:23;18.80;99.90
32348;DHT22;18821;44.800;10.326;2023-04-20T12:35:50;19.00;99.90
32348;DHT22;18821;44.800;10.326;2023-04-20T12:38:16;19.00;99.90
32348;DHT22;18821;44.800;10.326;2023-04-20T12:40:42;18.70;99.90
32348;DHT22;18821;44.800;10.326;2023-04-20T12:43:08;19.20;99.90
32348;DHT22;18821;44.800;10.326;2023-04-20T12:45:34;18.70;99.90
32348;DHT22;18821;44.800;10.326;2023-04-20T12:48:00;18.30;99.90
32348;DHT22;18821;44.800;10.326;2023-04-20T12:50:26;18.10;1.00
32348;DHT22;18821;44.800;10.326;2023-04-20T12:52:52;18.00;1.00
32348;DHT22;18821;44.800;10.326;2023-04-20T12:55:21;17.90;1.00
32348;DHT22;18821;44.800;10.326;2023-04-20T12:57:47;18.00;1.00
32348;DHT22;18821;44.800;10.326;2023-04-20T13:00:13;18.20;1.00
32348;DHT22;18821;44.800;10.326;2023-04-20T13:02:39;18.30;1.00
32348;DHT22;18821;44.800;10.326;2023-04-20T13:05:06;18.30;1.00
32348;DHT22;18821;44.800;10.326;2023-04-20T13:07:32;18.40;99.90
32348;DHT22;18821;44.800;10.326;2023-04-20T13:09:59;18.60;99.90
32348;DHT22;18821;44.800;10.326;2023-04-20T13:12:25;18.70;99.90
32348;DHT22;18821;44.800;10.326;2023-04-20T13:14:51;18.70;99.90
32348;DHT22;18821;44.800;10.326;2023-04-20T13:17:17;18.50;99.90
32348;DHT22;18821;44.800;10.326;2023-04-20T13:19:48;18.40;99.90
32348;DHT22;18821;44.800;10.326;2023-04-20T13:22:15;18.10;99.90
32348;DHT22;18821;44.800;10.326;2023-04-20T13:24:41;18.20;99.90
32348;DHT22;18821;44.800;10.326;2023-04-20T13:27:09;18.40;99.90
32348;DHT22;18821;44.800;10.326;2023-04-20T13:29:35;18.60;99.90
32348;DHT22;18821;44.800;10.326;2023-04-20T13:32:00;18.80;99.90
32348;DHT22;18821;44.800;10.326;2023-04-20T13:34:28;18.50;99.90
32348;DHT22;18821;44.800;10.326;2023-04-20T13:36:54;18.40;99.90
32348;DHT22;18821;44.800;10.326;2023-04-20T13:39:20;18.50;99.90
32348;DHT22;18821;44.800;10.326;2023-04-20T13:41:47;18.60;99.90
32348;DHT22;18821;44.800;10.326;2023-04-20T13:44:14;18.80;99.90
32348;DHT22;18821;44.800;10.326;2023-04-20T13:46:43;18.50;99.90
32348;DHT22;18821;44.800;10.326;2023-04-20T13:49:09;18.50;99.90
32348;DHT22;18821;44.800;10.326;2023-04-20T13:51:37;18.30;99.90
32348;DHT22;18821;44.800;10.326;2023-04-20T13:54:03;18.30;99.90
32348;DHT22;18821;44.800;10.326;2023-04-20T13:56:35;18.10;99.90
32348;DHT22;18821;44.800;10.326;2023-04-20T13:59:02;18.00;99.90
32348;DHT22;18821;44.800;10.326;2023-04-20T14:01:29;17.90;1.00
32348;DHT22;18821;44.800;10.326;2023-04-20T14:03:55;17.90;1.00
32348;DHT22;18821;44.800;10.326;2023-04-20T14:06:21;18.00;99.90
32348;DHT22;18821;44.800;10.326;2023-04-20T14:08:48;18.10;99.90
32348;DHT22;18821;44.800;10.326;2023-04-20T14:11:14;18.00;99.90
32348;DHT22;18821;44.800;10.326;2023-04-20T14:13:40;18.20;99.90
32348;DHT22;18821;44.800;10.326;2023-04-20T14:16:10;18.40;99.90
32348;DHT22;18821;44.800;10.326;2023-04-20T14:18:37;18.40;99.90
32348;DHT22;18821;44.800;10.326;2023-04-20T14:21:04;18.40;99.90
32348;DHT22;18821;44.800;10.326;2023-04-20T14:23:30;18.50;99.90
32348;DHT22;18821;44.800;10.326;2023-04-20T14:25:56;18.60;99.90
32348;DHT22;18821;44.800;10.326;2023-04-20T14:28:22;18.30;99.90
32348;DHT22;18821;44.800;10.326;2023-04-20T14:30:48;18.10;99.90
32348;DHT22;18821;44.800;10.326;2023-04-20T14:33:16;18.10;99.90
32348;DHT22;18821;44.800;10.326;2023-04-20T14:35:42;18.20;99.90
32348;DHT22;18821;44.800;10.326;2023-04-20T14:38:08;18.10;99.90
32348;DHT22;18821;44.800;10.326;2023-04-20T14:40:35;17.80;1.00
32348;DHT22;18821;44.800;10.326;2023-04-20T14:43:01;17.60;1.00
32348;DHT22;18821;44.800;10.326;2023-04-20T14:45:27;17.30;1.00
32348;DHT22;18821;44.800;10.326;2023-04-20T14:47:54;17.10;1.00
32348;DHT22;18821;44.800;10.326;2023-04-20T14:50:20;16.90;1.00
32348;DHT22;18821;44.800;10.326;2023-04-20T14:52:47;17.00;1.00
32348;DHT22;18821;44.800;10.326;2023-04-20T14:55:12;17.20;1.00
32348;DHT22;18821;44.800;10.326;2023-04-20T14:57:38;17.30;1.00
32348;DHT22;18821;44.800;10.326;2023-04-20T15:00:06;17.30;1.00
32348;DHT22;18821;44.800;10.326;2023-04-20T15:02:32;17.20;1.00
32348;DHT22;18821;44.800;10.326;2023-04-20T15:04:58;16.90;1.00
32348;DHT22;18821;44.800;10.326;2023-04-20T15:07:24;16.80;1.00
32348;DHT22;18821;44.800;10.326;2023-04-20T15:09:50;16.50;1.00
32348;DHT22;18821;44.800;10.326;2023-04-20T15:12:16;16.30;1.00
32348;DHT22;18821;44.800;10.326;2023-04-20T15:14:41;16.10;1.00
32348;DHT22;18821;44.800;10.326;2023-04-20T15:17:07;16.10;1.00
32348;DHT22;18821;44.800;10.326;2023-04-20T15:19:33;16.10;1.00
32348;DHT22;18821;44.800;10.326;2023-04-20T15:22:00;16.20;2.60